Time;durP1;ratioP1;P1;durP2;ratioP2;P2;SDS_P1;SDS_P2;PMS_P1;PMS_P2;Temp;Humidity;BMP_temperature;BMP_pressure;BME280_temperature;BME280_humidity;BME280_pressure;Samples;Min_cycle;Max_cycle;Signal;HPM_P1;HPM_P2
2022/08/31 00:06:17;;;;;;;6.63;5.80;;;;;;;;;;5003562;28;20185;-77
2022/08/31 00:08:43;;;;;;;6.83;6.03;;;;;;;;;;4992824;28;20258;-77
2022/08/31 00:11:12;;;;;;;6.70;6.00;;;;;;;;;;4992915;28;20239;-78
2022/08/31 00:13:38;;;;;;;7.33;6.73;;;;;;;;;;4993271;28;20175;-77
2022/08/31 00:16:03;;;;;;;7.77;6.63;;;;;;;;;;5002845;28;20179;-77
2022/08/31 00:18:28;;;;;;;7.03;6.43;;;;;;;;;;5011786;28;20322;-77
2022/08/31 00:20:53;;;;;;;6.37;5.70;;;;;;;;;;4994880;28;20207;-75
2022/08/31 00:23:19;;;;;;;6.73;6.03;;;;;;;;;;4993782;28;20192;-75
2022/08/31 00:25:45;;;;;;;7.27;6.30;;;;;;;;;;4993674;28;20195;-75
2022/08/31 00:28:11;;;;;;;7.03;6.43;;;;;;;;;;4993838;28;20176;-75
2022/08/31 00:30:39;;;;;;;6.87;6.00;;;;;;;;;;4992429;28;20183;-76
2022/08/31 00:33:04;;;;;;;6.97;6.27;;;;;;;;;;4993768;28;20258;-75
2022/08/31 00:35:31;;;;;;;7.20;6.60;;;;;;;;;;5008367;28;20300;-76
2022/08/31 00:37:57;;;;;;;6.87;6.30;;;;;;;;;;4993464;28;20274;-77
2022/08/31 00:40:22;;;;;;;6.73;6.03;;;;;;;;;;4993635;28;20179;-76
2022/08/31 00:42:47;;;;;;;7.53;6.83;;;;;;;;;;4984459;28;20216;-76
2022/08/31 00:45:12;;;;;;;5.97;5.47;;;;;;;;;;4992210;28;20500;-76
2022/08/31 00:47:38;;;;;;;7.00;6.40;;;;;;;;;;5008364;28;20275;-76
2022/08/31 00:50:05;;;;;;;6.63;6.03;;;;;;;;;;5002044;28;20214;-75
2022/08/31 00:52:32;;;;;;;7.43;6.73;;;;;;;;;;5011620;28;20183;-76
2022/08/31 00:55:00;;;;;;;7.87;6.13;;;;;;;;;;5011637;28;20261;-75
2022/08/31 00:57:34;;;;;;;6.87;6.17;;;;;;;;;;5011831;28;20174;-75
2022/08/31 01:00:01;;;;;;;5.30;4.80;;;;;;;;;;5007188;28;20270;-75
2022/08/31 01:02:26;;;;;;;6.97;6.37;;;;;;;;;;4982118;28;20186;-75
2022/08/31 01:04:52;;;;;;;6.67;5.97;;;;;;;;;;4972258;28;20188;-75
2022/08/31 01:07:17;;;;;;;6.97;6.17;;;;;;;;;;4997085;28;20189;-75
2022/08/31 01:09:43;;;;;;;7.00;6.40;;;;;;;;;;5011350;28;20182;-75
2022/08/31 01:12:08;;;;;;;6.27;5.67;;;;;;;;;;5012756;28;20183;-75
2022/08/31 01:14:34;;;;;;;6.33;5.80;;;;;;;;;;5011603;28;20180;-75
2022/08/31 01:17:00;;;;;;;8.57;6.87;;;;;;;;;;5011203;28;20296;-74
2022/08/31 01:19:33;;;;;;;7.03;6.17;;;;;;;;;;5004292;28;20615;-75
2022/08/31 01:22:07;;;;;;;6.13;5.63;;;;;;;;;;4991853;28;20258;-75
2022/08/31 01:24:32;;;;;;;6.33;5.80;;;;;;;;;;5004637;28;20193;-75
2022/08/31 01:27:03;;;;;;;6.50;6.00;;;;;;;;;;5012121;28;20171;-75
2022/08/31 01:29:29;;;;;;;7.27;6.57;;;;;;;;;;5011881;28;20183;-75
2022/08/31 01:31:54;;;;;;;5.90;5.40;;;;;;;;;;5007913;28;20183;-75
2022/08/31 01:34:20;;;;;;;9.23;6.17;;;;;;;;;;4986130;28;20211;-75
2022/08/31 01:36:46;;;;;;;7.00;6.40;;;;;;;;;;4996896;28;20198;-75
2022/08/31 01:39:12;;;;;;;6.00;5.47;;;;;;;;;;4991015;28;20227;-75
2022/08/31 01:41:40;;;;;;;7.80;6.80;;;;;;;;;;4989573;28;20198;-75
2022/08/31 01:44:07;;;;;;;6.20;5.60;;;;;;;;;;4987995;28;20182;-75
2022/08/31 01:46:32;;;;;;;6.57;5.97;;;;;;;;;;5003593;28;20183;-75
2022/08/31 01:48:58;;;;;;;6.30;5.70;;;;;;;;;;4980658;28;20176;-75
2022/08/31 01:51:23;;;;;;;6.20;5.60;;;;;;;;;;4972813;28;20187;-75
2022/08/31 01:53:50;;;;;;;6.80;5.77;;;;;;;;;;4972780;28;20183;-76
2022/08/31 01:56:17;;;;;;;6.73;6.03;;;;;;;;;;4971644;28;20183;-75
2022/08/31 01:58:42;;;;;;;7.33;5.87;;;;;;;;;;5004164;28;20198;-75
2022/08/31 02:01:08;;;;;;;7.03;6.30;;;;;;;;;;5010773;28;20517;-75
2022/08/31 02:03:33;;;;;;;6.60;5.90;;;;;;;;;;5010491;28;20197;-75
2022/08/31 02:06:04;;;;;;;6.03;5.20;;;;;;;;;;5010528;28;20186;-75
2022/08/31 02:08:29;;;;;;;5.77;5.27;;;;;;;;;;5010268;28;20178;-76
2022/08/31 02:10:55;;;;;;;5.57;5.07;;;;;;;;;;5011555;28;20182;-76
2022/08/31 02:13:20;;;;;;;6.07;5.47;;;;;;;;;;5010061;28;20277;-76
2022/08/31 02:15:45;;;;;;;5.43;4.93;;;;;;;;;;5010231;28;20188;-76
2022/08/31 02:18:10;;;;;;;7.47;5.50;;;;;;;;;;5027459;28;20320;-76
2022/08/31 02:20:36;;;;;;;5.43;4.93;;;;;;;;;;4997599;28;20185;-76
2022/08/31 02:23:02;;;;;;;6.23;5.63;;;;;;;;;;4977073;28;20305;-76
2022/08/31 02:25:27;;;;;;;5.60;5.00;;;;;;;;;;4974289;28;20175;-76
2022/08/31 02:27:52;;;;;;;5.30;4.80;;;;;;;;;;4973928;28;20266;-76
2022/08/31 02:30:18;;;;;;;6.60;5.93;;;;;;;;;;4973957;28;20211;-76
2022/08/31 02:32:44;;;;;;;6.83;5.33;;;;;;;;;;5012205;28;20210;-76
2022/08/31 02:35:09;;;;;;;7.50;6.23;;;;;;;;;;4998670;28;20202;-76
2022/08/31 02:37:35;;;;;;;5.73;5.13;;;;;;;;;;5013007;28;20181;-76
2022/08/31 02:40:01;;;;;;;6.63;5.20;;;;;;;;;;5030652;28;20225;-76
2022/08/31 02:42:26;;;;;;;5.37;4.93;;;;;;;;;;4985089;28;20166;-76
2022/08/31 02:44:51;;;;;;;5.60;5.03;;;;;;;;;;4993084;28;20185;-76
2022/08/31 02:47:16;;;;;;;5.87;5.27;;;;;;;;;;4993274;28;20175;-76
2022/08/31 02:49:42;;;;;;;5.60;5.10;;;;;;;;;;5025964;28;20180;-76
2022/08/31 02:52:07;;;;;;;6.73;5.90;;;;;;;;;;5013095;28;20183;-76
2022/08/31 02:54:32;;;;;;;6.13;4.90;;;;;;;;;;5030857;28;20168;-76
2022/08/31 02:56:57;;;;;;;5.47;5.03;;;;;;;;;;5012979;28;20176;-76
2022/08/31 02:59:23;;;;;;;5.67;4.97;;;;;;;;;;5029994;28;20234;-76
2022/08/31 03:01:48;;;;;;;5.53;5.03;;;;;;;;;;4997374;28;20211;-76
2022/08/31 03:04:14;;;;;;;7.17;5.67;;;;;;;;;;4991093;28;20204;-76
2022/08/31 03:06:39;;;;;;;6.33;5.80;;;;;;;;;;5008277;28;20185;-76
2022/08/31 03:09:04;;;;;;;6.07;5.50;;;;;;;;;;5030411;28;20215;-76
2022/08/31 03:11:30;;;;;;;5.83;5.33;;;;;;;;;;5010069;28;20185;-76
2022/08/31 03:13:55;;;;;;;5.13;4.73;;;;;;;;;;5007536;28;20182;-76
2022/08/31 03:16:20;;;;;;;5.40;4.80;;;;;;;;;;4994026;28;20239;-76
2022/08/31 03:18:47;;;;;;;6.33;5.50;;;;;;;;;;4992119;28;20207;-76
2022/08/31 03:21:12;;;;;;;6.20;5.57;;;;;;;;;;4973400;28;20268;-76
2022/08/31 03:23:38;;;;;;;5.37;4.73;;;;;;;;;;5007773;28;20270;-76
2022/08/31 03:26:04;;;;;;;5.40;4.70;;;;;;;;;;5012760;28;20179;-75
2022/08/31 03:28:30;;;;;;;6.20;5.60;;;;;;;;;;5012343;28;20179;-75
2022/08/31 03:30:55;;;;;;;5.87;5.37;;;;;;;;;;5009738;28;20186;-75
2022/08/31 03:33:21;;;;;;;6.73;5.93;;;;;;;;;;5016934;28;20180;-75
2022/08/31 03:35:46;;;;;;;5.83;4.93;;;;;;;;;;5001058;28;20184;-75
2022/08/31 03:38:12;;;;;;;5.97;5.40;;;;;;;;;;4992819;28;20232;-76
2022/08/31 03:40:38;;;;;;;6.10;5.33;;;;;;;;;;5019693;28;20179;-75
2022/08/31 03:43:03;;;;;;;5.50;5.10;;;;;;;;;;5001952;28;20179;-75
2022/08/31 03:45:30;;;;;;;6.27;5.67;;;;;;;;;;5010392;28;20157;-75
2022/08/31 03:47:56;;;;;;;6.47;5.83;;;;;;;;;;5003010;28;20179;-76
2022/08/31 03:50:22;;;;;;;6.00;5.40;;;;;;;;;;4986477;28;20205;-76
2022/08/31 03:52:47;;;;;;;7.40;5.77;;;;;;;;;;4994757;28;20252;-75
2022/08/31 03:55:12;;;;;;;5.97;5.37;;;;;;;;;;4976853;28;20192;-75
2022/08/31 03:57:37;;;;;;;6.90;5.83;;;;;;;;;;5006889;28;20179;-75
2022/08/31 04:00:03;;;;;;;6.07;5.53;;;;;;;;;;5033611;28;20168;-75
2022/08/31 04:02:29;;;;;;;6.27;5.67;;;;;;;;;;5016093;28;20468;-75
2022/08/31 04:04:54;;;;;;;5.57;5.07;;;;;;;;;;5033557;28;20174;-75
2022/08/31 04:07:20;;;;;;;6.23;5.63;;;;;;;;;;5015902;28;20182;-75
2022/08/31 04:09:46;;;;;;;6.73;6.00;;;;;;;;;;5033451;28;20175;-75
2022/08/31 04:12:12;;;;;;;7.30;6.70;;;;;;;;;;5015391;28;20203;-75
2022/08/31 04:14:37;;;;;;;8.17;5.90;;;;;;;;;;5010003;28;20187;-75
2022/08/31 04:17:02;;;;;;;7.30;5.93;;;;;;;;;;5008284;28;20231;-75
2022/08/31 04:19:28;;;;;;;6.33;5.73;;;;;;;;;;5005334;28;20200;-75
2022/08/31 04:21:54;;;;;;;7.53;6.20;;;;;;;;;;4986253;28;20165;-75
2022/08/31 04:24:20;;;;;;;6.07;5.57;;;;;;;;;;4981057;28;20185;-75
2022/08/31 04:26:45;;;;;;;5.70;5.20;;;;;;;;;;4973059;28;20175;-76
2022/08/31 04:29:11;;;;;;;5.57;5.07;;;;;;;;;;4973134;28;20185;-75
2022/08/31 04:31:36;;;;;;;6.10;5.13;;;;;;;;;;4996465;28;20232;-75
2022/08/31 04:34:02;;;;;;;5.30;4.80;;;;;;;;;;4992263;28;20200;-75
2022/08/31 04:36:27;;;;;;;5.27;4.87;;;;;;;;;;5004368;28;20176;-75
2022/08/31 04:38:53;;;;;;;5.20;4.70;;;;;;;;;;5013037;28;20187;-75
2022/08/31 04:41:20;;;;;;;5.40;4.90;;;;;;;;;;4997744;28;20179;-75
2022/08/31 04:43:46;;;;;;;5.40;4.90;;;;;;;;;;4986355;28;20180;-75
2022/08/31 04:46:11;;;;;;;5.97;5.37;;;;;;;;;;4993235;28;20196;-75
2022/08/31 04:48:38;;;;;;;7.43;5.30;;;;;;;;;;5007775;28;20192;-75
2022/08/31 04:51:05;;;;;;;4.80;4.40;;;;;;;;;;5011790;28;20182;-75
2022/08/31 04:53:30;;;;;;;5.20;4.70;;;;;;;;;;5012882;28;20187;-75
2022/08/31 04:55:55;;;;;;;6.00;5.37;;;;;;;;;;5012631;28;20180;-75
2022/08/31 04:58:22;;;;;;;5.37;4.77;;;;;;;;;;5012407;28;20206;-76
2022/08/31 05:00:48;;;;;;;5.83;4.87;;;;;;;;;;5001932;28;20187;-75
2022/08/31 05:03:13;;;;;;;4.70;4.03;;;;;;;;;;4985214;28;20203;-75
2022/08/31 05:05:38;;;;;;;5.03;4.53;;;;;;;;;;4988438;28;20234;-75
2022/08/31 05:08:04;;;;;;;4.97;4.43;;;;;;;;;;4991944;28;20211;-75
2022/08/31 05:10:29;;;;;;;4.40;4.00;;;;;;;;;;4991576;28;20184;-76
2022/08/31 05:12:55;;;;;;;4.53;4.13;;;;;;;;;;4991820;28;20199;-75
2022/08/31 05:15:20;;;;;;;4.63;4.23;;;;;;;;;;5002735;28;20208;-75
2022/08/31 05:17:45;;;;;;;4.80;4.40;;;;;;;;;;5024639;28;20229;-75
2022/08/31 05:20:10;;;;;;;4.70;4.00;;;;;;;;;;5001544;28;20177;-75
2022/08/31 05:22:36;;;;;;;4.67;4.00;;;;;;;;;;4995361;28;20188;-75
2022/08/31 05:25:05;;;;;;;5.67;3.83;;;;;;;;;;5012095;28;20166;-75
2022/08/31 05:27:30;;;;;;;4.73;3.87;;;;;;;;;;5012103;28;20186;-75
2022/08/31 05:29:56;;;;;;;7.57;5.13;;;;;;;;;;5012432;28;20168;-75
2022/08/31 05:32:21;;;;;;;4.53;4.13;;;;;;;;;;4994559;28;20226;-75
2022/08/31 05:34:46;;;;;;;4.33;3.87;;;;;;;;;;5008144;28;20361;-75
2022/08/31 05:37:11;;;;;;;5.93;4.13;;;;;;;;;;5031507;28;20175;-75
2022/08/31 05:39:37;;;;;;;4.67;4.27;;;;;;;;;;5016108;28;20191;-75
2022/08/31 05:42:02;;;;;;;4.53;4.10;;;;;;;;;;5003590;28;20179;-76
2022/08/31 05:44:34;;;;;;;5.07;4.30;;;;;;;;;;5011479;28;20175;-75
2022/08/31 05:47:00;;;;;;;4.63;4.13;;;;;;;;;;4994459;28;20192;-75
2022/08/31 05:49:25;;;;;;;5.60;5.03;;;;;;;;;;4985958;28;20233;-75
2022/08/31 05:51:50;;;;;;;5.00;4.27;;;;;;;;;;5010572;28;20176;-75
2022/08/31 05:54:16;;;;;;;4.80;4.40;;;;;;;;;;4994013;28;20304;-75
2022/08/31 05:56:44;;;;;;;7.50;5.80;;;;;;;;;;5009727;28;20437;-75
2022/08/31 05:59:10;;;;;;;6.27;5.30;;;;;;;;;;5013538;28;20217;-75
2022/08/31 06:01:37;;;;;;;5.63;4.07;;;;;;;;;;5013867;28;20171;-75
2022/08/31 06:04:02;;;;;;;6.13;4.67;;;;;;;;;;5013635;28;20176;-75
2022/08/31 06:06:28;;;;;;;6.33;4.80;;;;;;;;;;5013745;28;20185;-75
2022/08/31 06:08:54;;;;;;;7.23;4.67;;;;;;;;;;5013190;28;20179;-75
2022/08/31 06:11:20;;;;;;;4.43;4.00;;;;;;;;;;5030694;28;20173;-75
2022/08/31 06:13:46;;;;;;;5.33;4.57;;;;;;;;;;5007611;28;20171;-75
2022/08/31 06:16:12;;;;;;;6.00;5.40;;;;;;;;;;5003325;28;20285;-75
2022/08/31 06:18:39;;;;;;;6.67;5.80;;;;;;;;;;4991726;28;20545;-75
2022/08/31 06:21:09;;;;;;;5.40;4.90;;;;;;;;;;4992774;28;20171;-75
2022/08/31 06:23:35;;;;;;;6.53;5.93;;;;;;;;;;4995010;28;20168;-75
2022/08/31 06:26:11;;;;;;;9.13;6.20;;;;;;;;;;5010055;28;20243;-75
2022/08/31 06:28:36;;;;;;;8.27;7.33;;;;;;;;;;5010056;28;20202;-75
2022/08/31 06:31:10;;;;;;;7.40;6.80;;;;;;;;;;5011476;28;20417;-75
2022/08/31 06:33:37;;;;;;;7.03;6.33;;;;;;;;;;5006328;28;20201;-75
2022/08/31 06:36:02;;;;;;;7.77;6.97;;;;;;;;;;5004817;28;20180;-75
2022/08/31 06:38:27;;;;;;;7.80;7.10;;;;;;;;;;5012999;28;20228;-75
2022/08/31 06:40:53;;;;;;;8.53;7.70;;;;;;;;;;5005604;28;20168;-75
2022/08/31 06:43:18;;;;;;;7.50;6.70;;;;;;;;;;4985221;28;20447;-75
2022/08/31 06:45:43;;;;;;;8.37;7.57;;;;;;;;;;5010496;28;20211;-75
2022/08/31 06:48:08;;;;;;;10.67;9.57;;;;;;;;;;5012614;28;20182;-75
2022/08/31 06:50:34;;;;;;;8.60;7.90;;;;;;;;;;5030615;28;20162;-75
2022/08/31 06:52:59;;;;;;;9.37;8.37;;;;;;;;;;5012809;28;20176;-75
2022/08/31 06:55:24;;;;;;;9.53;8.63;;;;;;;;;;5013014;28;20178;-75
2022/08/31 06:57:50;;;;;;;8.97;8.00;;;;;;;;;;5012764;28;20198;-76
2022/08/31 07:00:15;;;;;;;9.80;8.90;;;;;;;;;;5022161;28;20253;-75
2022/08/31 07:02:40;;;;;;;10.30;8.80;;;;;;;;;;4996061;28;20492;-75
2022/08/31 07:05:05;;;;;;;10.13;9.23;;;;;;;;;;5012362;28;20225;-75
2022/08/31 07:07:31;;;;;;;9.47;8.47;;;;;;;;;;5012812;28;20183;-75
2022/08/31 07:09:56;;;;;;;10.23;9.23;;;;;;;;;;5012907;28;20172;-75
2022/08/31 07:12:22;;;;;;;9.20;8.40;;;;;;;;;;5006141;28;20182;-75
2022/08/31 07:14:49;;;;;;;8.23;7.47;;;;;;;;;;5000756;28;20179;-75
2022/08/31 07:17:15;;;;;;;8.93;8.13;;;;;;;;;;4989594;28;20260;-75
2022/08/31 07:19:40;;;;;;;8.10;7.37;;;;;;;;;;4982361;28;20243;-75
2022/08/31 07:22:06;;;;;;;9.13;8.23;;;;;;;;;;4999063;28;20176;-75
2022/08/31 07:24:33;;;;;;;8.63;7.73;;;;;;;;;;4994816;28;20165;-75
2022/08/31 07:27:03;;;;;;;7.77;7.00;;;;;;;;;;4995063;28;20164;-75
2022/08/31 07:29:30;;;;;;;8.50;7.67;;;;;;;;;;4993302;28;20177;-75
2022/08/31 07:31:58;;;;;;;9.10;8.30;;;;;;;;;;4993503;28;20259;-75
2022/08/31 07:34:24;;;;;;;10.20;9.20;;;;;;;;;;5002609;28;20200;-75
2022/08/31 07:42:20;;;;;;;7.80;6.90;;;;;;;;;;4987179;28;20275;-75
2022/08/31 07:44:47;;;;;;;9.73;8.73;;;;;;;;;;5009738;28;20176;-75
2022/08/31 07:47:13;;;;;;;8.43;7.63;;;;;;;;;;4986632;28;20176;-75
2022/08/31 07:49:43;;;;;;;10.33;9.17;;;;;;;;;;4982282;28;20169;-75
2022/08/31 07:52:11;;;;;;;10.63;9.63;;;;;;;;;;4974056;28;20260;-75
2022/08/31 07:54:36;;;;;;;10.67;9.67;;;;;;;;;;4982814;28;20276;-75
2022/08/31 07:57:04;;;;;;;9.17;8.27;;;;;;;;;;4993283;28;20206;-75
2022/08/31 07:59:32;;;;;;;10.13;9.07;;;;;;;;;;4993136;28;20206;-75
2022/08/31 08:02:00;;;;;;;9.37;8.47;;;;;;;;;;4993118;28;20231;-75
2022/08/31 08:04:25;;;;;;;10.37;9.30;;;;;;;;;;4994092;28;20437;-75
2022/08/31 08:06:54;;;;;;;11.07;10.10;;;;;;;;;;4992962;28;20267;-75
2022/08/31 08:09:23;;;;;;;9.13;8.33;;;;;;;;;;4994184;28;20168;-74
2022/08/31 08:11:54;;;;;;;9.17;8.27;;;;;;;;;;4998399;28;20181;-75
2022/08/31 08:14:20;;;;;;;11.17;9.97;;;;;;;;;;5008808;28;20176;-75
2022/08/31 08:16:46;;;;;;;9.73;8.80;;;;;;;;;;4992882;28;20233;-75
2022/08/31 08:19:11;;;;;;;11.10;10.00;;;;;;;;;;5007371;28;20198;-75
2022/08/31 08:21:37;;;;;;;10.87;9.87;;;;;;;;;;4993389;28;20162;-75
2022/08/31 08:24:02;;;;;;;11.33;10.33;;;;;;;;;;4984895;28;20177;-76
2022/08/31 08:26:27;;;;;;;12.10;10.80;;;;;;;;;;4993622;28;20202;-76
2022/08/31 08:28:52;;;;;;;12.10;11.00;;;;;;;;;;5001288;28;20192;-75
2022/08/31 08:31:21;;;;;;;11.20;10.20;;;;;;;;;;5013717;28;20169;-76
2022/08/31 08:33:47;;;;;;;11.60;10.50;;;;;;;;;;5004312;28;20267;-75
2022/08/31 08:36:15;;;;;;;12.07;10.93;;;;;;;;;;5002858;28;20174;-76
2022/08/31 08:38:42;;;;;;;10.97;9.47;;;;;;;;;;4992479;28;20215;-76
2022/08/31 08:41:21;;;;;;;10.73;8.30;;;;;;;;;;4985051;28;20187;-76
2022/08/31 08:43:48;;;;;;;12.20;11.00;;;;;;;;;;4972651;28;20178;-76
2022/08/31 08:46:14;;;;;;;10.60;9.60;;;;;;;;;;4996257;28;20173;-76
2022/08/31 08:48:41;;;;;;;12.07;10.87;;;;;;;;;;5012572;28;20163;-76
2022/08/31 08:51:12;;;;;;;10.60;8.30;;;;;;;;;;5013035;28;20253;-76
2022/08/31 08:53:38;;;;;;;9.80;8.80;;;;;;;;;;5012994;28;20247;-76
2022/08/31 08:56:04;;;;;;;9.97;9.07;;;;;;;;;;5011643;28;20228;-76
2022/08/31 08:58:30;;;;;;;9.07;8.17;;;;;;;;;;5013002;28;20195;-76
2022/08/31 09:00:56;;;;;;;13.43;12.23;;;;;;;;;;4999761;28;20263;-76
2022/08/31 09:03:32;;;;;;;9.87;8.87;;;;;;;;;;4993792;28;20260;-76
2022/08/31 09:06:08;;;;;;;10.93;8.87;;;;;;;;;;4991977;28;20253;-76
2022/08/31 09:08:42;;;;;;;10.97;9.97;;;;;;;;;;4993208;28;20177;-76
2022/08/31 09:11:16;;;;;;;11.30;10.10;;;;;;;;;;4993096;28;20178;-76
2022/08/31 09:13:56;;;;;;;12.17;10.97;;;;;;;;;;5000967;28;20182;-76
2022/08/31 09:16:33;;;;;;;9.63;8.73;;;;;;;;;;4992254;28;20188;-76
2022/08/31 09:19:01;;;;;;;10.57;9.13;;;;;;;;;;5013326;28;20197;-76
2022/08/31 09:21:29;;;;;;;10.43;9.50;;;;;;;;;;4996660;28;20199;-76
2022/08/31 09:24:04;;;;;;;9.93;8.73;;;;;;;;;;5010956;28;20226;-76
2022/08/31 09:26:34;;;;;;;11.13;10.10;;;;;;;;;;4994835;28;20209;-76
2022/08/31 09:29:02;;;;;;;10.37;9.07;;;;;;;;;;5012162;28;20257;-76
2022/08/31 09:31:36;;;;;;;10.57;9.67;;;;;;;;;;5012162;28;20188;-76
2022/08/31 09:34:01;;;;;;;11.77;10.67;;;;;;;;;;4994473;28;20198;-76
2022/08/31 09:36:32;;;;;;;8.77;7.97;;;;;;;;;;5025879;28;20221;-76
2022/08/31 09:39:11;;;;;;;8.57;7.80;;;;;;;;;;5011867;28;20197;-76
2022/08/31 09:41:37;;;;;;;8.47;7.73;;;;;;;;;;4990048;28;20202;-76
2022/08/31 09:44:20;;;;;;;8.83;8.07;;;;;;;;;;5008027;28;20206;-76
2022/08/31 09:46:47;;;;;;;8.53;7.77;;;;;;;;;;5005637;28;20265;-76
2022/08/31 09:49:44;;;;;;;9.17;8.23;;;;;;;;;;4992731;28;20183;-76
2022/08/31 09:52:17;;;;;;;7.60;6.83;;;;;;;;;;4962842;28;20383;-76
2022/08/31 09:57:57;;;;;;;9.77;8.60;;;;;;;;;;5031617;28;20331;-76
2022/08/31 10:00:43;;;;;;;11.70;10.60;;;;;;;;;;5014339;28;20189;-76
2022/08/31 10:03:17;;;;;;;10.33;9.33;;;;;;;;;;5013473;28;20175;-76
2022/08/31 10:05:43;;;;;;;10.80;9.67;;;;;;;;;;5031133;28;20182;-76
2022/08/31 10:08:10;;;;;;;12.17;11.07;;;;;;;;;;5013584;28;20191;-76
2022/08/31 10:10:37;;;;;;;11.40;10.30;;;;;;;;;;5029592;28;20188;-76
2022/08/31 10:13:11;;;;;;;11.40;10.20;;;;;;;;;;5020088;28;20182;-76
2022/08/31 10:15:49;;;;;;;10.00;9.00;;;;;;;;;;4974505;28;20202;-76
2022/08/31 10:18:29;;;;;;;11.23;10.13;;;;;;;;;;4991508;28;20238;-76
2022/08/31 10:21:04;;;;;;;11.97;10.70;;;;;;;;;;5010116;28;20186;-76
2022/08/31 10:23:53;;;;;;;14.03;11.47;;;;;;;;;;4982071;28;20186;-76
2022/08/31 10:26:35;;;;;;;10.50;9.50;;;;;;;;;;4973961;28;20174;-75
2022/08/31 10:29:07;;;;;;;12.23;11.03;;;;;;;;;;4993873;28;20253;-75
2022/08/31 10:31:37;;;;;;;12.07;10.87;;;;;;;;;;4993842;28;20232;-75
2022/08/31 10:36:58;;;;;;;11.17;10.17;;;;;;;;;;5015973;28;20291;-75
2022/08/31 10:39:31;;;;;;;11.27;10.10;;;;;;;;;;5010691;28;20211;-76
2022/08/31 10:41:57;;;;;;;11.33;10.23;;;;;;;;;;4986366;28;20193;-76
2022/08/31 10:44:47;;;;;;;10.60;9.50;;;;;;;;;;4984006;28;20176;-75
2022/08/31 10:47:14;;;;;;;12.37;10.47;;;;;;;;;;5012538;28;20224;-75
2022/08/31 10:49:39;;;;;;;12.93;10.20;;;;;;;;;;5013008;28;20201;-75
2022/08/31 10:52:10;;;;;;;10.50;9.50;;;;;;;;;;5030373;28;20182;-75
2022/08/31 10:54:39;;;;;;;10.70;9.70;;;;;;;;;;5012960;28;20210;-75
2022/08/31 10:57:04;;;;;;;11.97;8.97;;;;;;;;;;5012752;28;20183;-75
2022/08/31 10:59:36;;;;;;;9.73;8.53;;;;;;;;;;5030302;28;20197;-75
2022/08/31 11:02:23;;;;;;;10.27;8.60;;;;;;;;;;5029664;28;20184;-75
2022/08/31 11:05:09;;;;;;;10.77;9.70;;;;;;;;;;5030587;28;20208;-76
2022/08/31 11:07:34;;;;;;;10.03;9.13;;;;;;;;;;5012849;28;20180;-75
2022/08/31 11:10:04;;;;;;;10.20;9.03;;;;;;;;;;5025532;28;20167;-75
2022/08/31 11:12:41;;;;;;;9.40;8.60;;;;;;;;;;4990318;28;20178;-75
2022/08/31 11:15:21;;;;;;;9.63;8.73;;;;;;;;;;4973695;28;20180;-75
2022/08/31 11:18:04;;;;;;;9.70;8.80;;;;;;;;;;4971071;28;20254;-75
2022/08/31 11:20:33;;;;;;;8.47;7.77;;;;;;;;;;4985307;28;20190;-75
2022/08/31 11:23:00;;;;;;;10.27;9.37;;;;;;;;;;5006159;28;20171;-75
2022/08/31 11:25:35;;;;;;;10.17;9.27;;;;;;;;;;4991005;28;20167;-76
2022/08/31 11:28:01;;;;;;;9.93;8.93;;;;;;;;;;4989923;28;20185;-75
2022/08/31 11:30:31;;;;;;;9.90;8.90;;;;;;;;;;4990761;28;20191;-75
2022/08/31 11:33:01;;;;;;;10.53;9.53;;;;;;;;;;4989477;28;20271;-75
2022/08/31 11:35:46;;;;;;;10.30;9.20;;;;;;;;;;5006208;28;20201;-75
2022/08/31 11:38:32;;;;;;;9.00;8.10;;;;;;;;;;5010198;28;20174;-76
2022/08/31 11:40:57;;;;;;;12.97;11.60;;;;;;;;;;5002353;28;20165;-76
2022/08/31 11:43:31;;;;;;;10.33;9.33;;;;;;;;;;4978669;28;20187;-75
2022/08/31 11:46:18;;;;;;;11.40;10.07;;;;;;;;;;4969967;28;20173;-75
2022/08/31 11:48:53;;;;;;;11.00;9.90;;;;;;;;;;4961155;28;20192;-75
2022/08/31 11:51:34;;;;;;;10.90;9.83;;;;;;;;;;4980238;28;20183;-75
2022/08/31 11:54:02;;;;;;;15.73;11.73;;;;;;;;;;4971512;28;20192;-76
2022/08/31 11:56:35;;;;;;;11.63;10.30;;;;;;;;;;4970450;28;20182;-76
2022/08/31 11:59:19;;;;;;;11.37;10.30;;;;;;;;;;4969873;28;20223;-75
2022/08/31 12:01:44;;;;;;;10.87;9.87;;;;;;;;;;4969919;28;20172;-75
2022/08/31 12:04:42;;;;;;;15.20;12.50;;;;;;;;;;4969784;28;20182;-76
2022/08/31 12:07:10;;;;;;;12.87;11.43;;;;;;;;;;4948705;28;20195;-75
2022/08/31 12:09:54;;;;;;;13.17;11.87;;;;;;;;;;4985391;28;20179;-76
2022/08/31 12:12:38;;;;;;;14.30;12.07;;;;;;;;;;5002303;28;20182;-75
2022/08/31 12:15:06;;;;;;;13.97;10.97;;;;;;;;;;5012543;28;20171;-74
2022/08/31 12:17:46;;;;;;;12.70;11.43;;;;;;;;;;5023330;28;20234;-75
2022/08/31 12:20:20;;;;;;;13.20;12.00;;;;;;;;;;5002721;28;20212;-75
2022/08/31 12:25:57;;;;;;;13.33;12.23;;;;;;;;;;5012339;28;20187;-75
2022/08/31 12:28:44;;;;;;;14.53;12.80;;;;;;;;;;4976383;28;20179;-75
2022/08/31 12:31:12;;;;;;;13.67;12.53;;;;;;;;;;4993669;28;20173;-75
2022/08/31 12:33:42;;;;;;;12.80;11.57;;;;;;;;;;5008385;28;20212;-75
2022/08/31 12:36:12;;;;;;;15.03;13.63;;;;;;;;;;5007017;28;20237;-75
2022/08/31 12:38:38;;;;;;;13.20;11.83;;;;;;;;;;5015315;28;20207;-75
2022/08/31 12:41:03;;;;;;;13.73;10.40;;;;;;;;;;5006326;28;20190;-75
2022/08/31 12:43:41;;;;;;;11.60;10.57;;;;;;;;;;5005077;28;20175;-75
2022/08/31 12:46:36;;;;;;;12.47;11.23;;;;;;;;;;4995038;28;20207;-75
2022/08/31 12:49:04;;;;;;;12.47;11.37;;;;;;;;;;4954590;28;20195;-75
2022/08/31 12:51:47;;;;;;;13.87;12.63;;;;;;;;;;5012788;28;20171;-74
2022/08/31 12:54:19;;;;;;;13.40;11.93;;;;;;;;;;4995197;28;20178;-74
2022/08/31 12:56:56;;;;;;;13.30;10.63;;;;;;;;;;5012968;28;20172;-75
2022/08/31 12:59:31;;;;;;;12.33;11.23;;;;;;;;;;5012553;28;20201;-75
2022/08/31 13:01:57;;;;;;;12.07;10.97;;;;;;;;;;5012654;28;20183;-75
2022/08/31 13:04:23;;;;;;;15.50;14.00;;;;;;;;;;5032328;28;20175;-74
2022/08/31 13:06:48;;;;;;;13.20;12.00;;;;;;;;;;5014723;28;20184;-75
2022/08/31 13:09:27;;;;;;;13.67;12.33;;;;;;;;;;5026322;28;20319;-75
2022/08/31 13:11:53;;;;;;;14.83;13.27;;;;;;;;;;5006395;28;20179;-75
2022/08/31 13:14:21;;;;;;;13.70;11.77;;;;;;;;;;5014667;28;20181;-75
2022/08/31 13:16:51;;;;;;;15.57;14.07;;;;;;;;;;5031521;28;20345;-75
2022/08/31 13:19:24;;;;;;;13.73;12.40;;;;;;;;;;4994326;28;20207;-74
2022/08/31 13:22:15;;;;;;;12.43;11.13;;;;;;;;;;4994570;28;20177;-75
2022/08/31 13:24:43;;;;;;;13.07;11.57;;;;;;;;;;5005645;28;20189;-75
2022/08/31 13:27:20;;;;;;;13.60;12.43;;;;;;;;;;4994697;28;20468;-75
2022/08/31 13:29:47;;;;;;;14.17;12.60;;;;;;;;;;4994280;28;20200;-75
2022/08/31 13:32:31;;;;;;;13.23;11.20;;;;;;;;;;4994836;28;20188;-74
2022/08/31 13:34:57;;;;;;;12.43;11.33;;;;;;;;;;5009510;28;20192;-75
2022/08/31 13:37:27;;;;;;;11.60;10.50;;;;;;;;;;4994614;28;20216;-75
2022/08/31 13:39:53;;;;;;;12.13;10.90;;;;;;;;;;4994532;28;20208;-75
2022/08/31 13:42:30;;;;;;;11.60;10.40;;;;;;;;;;4992238;28;20176;-74
2022/08/31 13:45:06;;;;;;;11.57;10.47;;;;;;;;;;4992304;28;20217;-75
2022/08/31 13:47:34;;;;;;;12.10;10.83;;;;;;;;;;4975120;28;20176;-75
2022/08/31 13:49:59;;;;;;;11.80;10.70;;;;;;;;;;4974857;28;20173;-75
2022/08/31 13:52:26;;;;;;;11.37;10.27;;;;;;;;;;5001305;28;20230;-75
2022/08/31 13:54:59;;;;;;;15.53;11.77;;;;;;;;;;5031286;28;20180;-75
2022/08/31 13:57:25;;;;;;;13.53;12.23;;;;;;;;;;5013513;28;20244;-74
2022/08/31 13:59:51;;;;;;;12.83;11.63;;;;;;;;;;5013973;28;20202;-74
2022/08/31 14:02:20;;;;;;;11.90;10.90;;;;;;;;;;5031414;28;20189;-75
2022/08/31 14:07:27;;;;;;;11.60;10.40;;;;;;;;;;5030723;28;20229;-75
2022/08/31 14:09:55;;;;;;;12.30;11.13;;;;;;;;;;5025145;28;20178;-75
2022/08/31 14:12:35;;;;;;;13.70;12.33;;;;;;;;;;4995130;28;20192;-75
2022/08/31 14:15:09;;;;;;;11.40;10.40;;;;;;;;;;4993638;28;20247;-75
2022/08/31 14:17:45;;;;;;;11.27;10.17;;;;;;;;;;4990116;28;20233;-75
2022/08/31 14:20:25;;;;;;;13.53;11.27;;;;;;;;;;4978232;28;20203;-75
2022/08/31 14:22:50;;;;;;;12.90;11.60;;;;;;;;;;4970973;28;20230;-75
2022/08/31 14:25:18;;;;;;;13.03;11.73;;;;;;;;;;4979141;28;20178;-74
2022/08/31 14:27:43;;;;;;;13.53;12.17;;;;;;;;;;5010012;28;20482;-75
2022/08/31 14:30:09;;;;;;;13.53;10.97;;;;;;;;;;5009477;28;20174;-75
2022/08/31 14:32:34;;;;;;;11.40;10.30;;;;;;;;;;5007071;28;20179;-75
2022/08/31 14:35:01;;;;;;;11.90;10.80;;;;;;;;;;4998261;28;20285;-75
2022/08/31 14:37:29;;;;;;;12.57;11.27;;;;;;;;;;5009377;28;20216;-74
2022/08/31 14:39:59;;;;;;;12.17;10.97;;;;;;;;;;5010087;28;20272;-75
2022/08/31 14:42:26;;;;;;;12.10;10.90;;;;;;;;;;4983756;28;20183;-74
2022/08/31 14:44:55;;;;;;;11.53;10.53;;;;;;;;;;4978439;28;20187;-74
2022/08/31 14:47:26;;;;;;;18.67;15.87;;;;;;;;;;4970980;28;20479;-75
2022/08/31 14:49:51;;;;;;;12.33;11.00;;;;;;;;;;4970930;28;20184;-75
2022/08/31 14:52:17;;;;;;;11.37;10.27;;;;;;;;;;4971616;28;20183;-75
2022/08/31 14:54:42;;;;;;;11.30;10.20;;;;;;;;;;4972249;28;20194;-75
2022/08/31 14:57:08;;;;;;;11.63;10.47;;;;;;;;;;4971246;28;20183;-75
2022/08/31 14:59:34;;;;;;;11.93;10.40;;;;;;;;;;4983356;28;20213;-75
2022/08/31 15:02:00;;;;;;;10.70;9.70;;;;;;;;;;5009957;28;20266;-75
2022/08/31 15:04:27;;;;;;;14.37;9.40;;;;;;;;;;5009604;28;20239;-75